Time;durP1;ratioP1;P1;durP2;ratioP2;P2;SDS_P1;SDS_P2;PMS_P1;PMS_P2;Temp;Humidity;BMP_temperature;BMP_pressure;BME280_temperature;BME280_humidity;BME280_pressure;Samples;Min_cycle;Max_cycle;Signal;HPM_P1;HPM_P2
2022/09/19 00:01:35;;;;;;;9.48;1.75;;;12.50;99.90;;;;;;4858866;29;36082;-80
2022/09/19 00:04:07;;;;;;;10.55;1.90;;;12.40;99.90;;;;;;4859523;29;37508;-80
2022/09/19 00:06:36;;;;;;;14.95;2.13;;;12.40;99.90;;;;;;4876007;29;48908;-80
2022/09/19 00:09:05;;;;;;;16.00;1.77;;;12.40;99.90;;;;;;4862917;29;37827;-81
2022/09/19 00:11:31;;;;;;;15.65;2.58;;;12.50;99.90;;;;;;4883192;29;37347;-80
2022/09/19 00:13:59;;;;;;;9.38;1.88;;;12.40;99.90;;;;;;4884632;29;38990;-81
2022/09/19 00:16:31;;;;;;;13.45;1.83;;;12.40;99.90;;;;;;4872489;29;37801;-81
2022/09/19 00:18:59;;;;;;;20.15;2.60;;;12.40;99.90;;;;;;4885333;29;38973;-81
2022/09/19 00:21:28;;;;;;;13.90;2.00;;;12.40;99.90;;;;;;4874019;29;37370;-80
2022/09/19 00:26:40;;;;;;;12.15;1.73;;;12.40;99.90;;;;;;4889940;29;50060;-80
2022/09/19 00:29:11;;;;;;;9.30;1.88;;;12.40;99.90;;;;;;4887055;29;39679;-81
2022/09/19 00:31:40;;;;;;;14.65;2.00;;;12.40;99.90;;;;;;4887572;29;38228;-80
2022/09/19 00:34:09;;;;;;;19.05;2.28;;;12.40;99.90;;;;;;4876066;29;37863;-81
2022/09/19 00:36:38;;;;;;;10.55;1.98;;;12.40;99.90;;;;;;4874781;29;37631;-80
2022/09/19 00:39:07;;;;;;;10.95;1.75;;;12.40;99.90;;;;;;4884693;29;38799;-80
2022/09/19 00:41:33;;;;;;;14.40;2.53;;;12.40;99.90;;;;;;4886263;29;37213;-81
2022/09/19 00:44:02;;;;;;;16.13;2.20;;;12.40;99.90;;;;;;4872977;29;38183;-82
2022/09/19 00:46:31;;;;;;;9.07;2.30;;;12.30;99.90;;;;;;4886548;29;48140;-82
2022/09/19 00:49:09;;;;;;;16.52;2.20;;;12.40;99.90;;;;;;4865592;29;38533;-79
2022/09/19 00:51:40;;;;;;;12.93;1.77;;;12.40;99.90;;;;;;4879769;29;46973;-81
2022/09/19 00:54:15;;;;;;;15.60;2.00;;;12.50;99.90;;;;;;4875554;29;37764;-81
2022/09/19 00:56:45;;;;;;;12.13;2.25;;;12.50;99.90;;;;;;4866421;29;39973;-80
2022/09/19 00:59:12;;;;;;;15.13;2.75;;;12.40;99.90;;;;;;4885335;29;38287;-80
2022/09/19 01:04:20;;;;;;;11.13;1.98;;;12.40;99.90;;;;;;4960930;23;20935;-79
2022/09/19 01:07:01;;;;;;;15.35;2.10;;;12.40;99.90;;;;;;4900320;29;38683;-79
2022/09/19 01:09:59;;;;;;;13.07;2.55;;;12.30;99.90;;;;;;4891829;29;37357;-78
2022/09/19 01:13:09;;;;;;;16.98;2.72;;;12.20;99.90;;;;;;4902624;29;38306;-79
2022/09/19 01:15:54;;;;;;;16.73;2.30;;;12.10;99.90;;;;;;4892597;29;48029;-79
2022/09/19 01:18:32;;;;;;;19.42;3.25;;;12.10;99.90;;;;;;4904523;29;38850;-78
2022/09/19 01:24:04;;;;;;;13.17;2.10;;;12.10;99.90;;;;;;4903541;29;49836;-79
2022/09/19 01:26:32;;;;;;;13.43;2.00;;;12.10;99.90;;;;;;4900087;29;49094;-78
2022/09/19 01:29:14;;;;;;;20.95;2.78;;;12.10;99.90;;;;;;4901577;29;39468;-79
2022/09/19 01:31:46;;;;;;;15.35;3.17;;;12.10;99.90;;;;;;4911702;29;50288;-79
2022/09/19 01:34:32;;;;;;;14.77;2.20;;;12.10;99.90;;;;;;4899542;29;36345;-80
2022/09/19 01:37:12;;;;;;;14.20;2.83;;;12.10;99.90;;;;;;4893101;29;39015;-79
2022/09/19 01:39:43;;;;;;;17.23;2.08;;;12.10;99.90;;;;;;4894127;29;48426;-80
2022/09/19 01:42:14;;;;;;;13.55;2.60;;;12.00;99.90;;;;;;4894997;29;37460;-80
2022/09/19 01:44:41;;;;;;;9.55;2.33;;;11.90;99.90;;;;;;4905620;29;39137;-79
2022/09/19 01:47:36;;;;;;;11.02;1.60;;;11.90;99.90;;;;;;4890907;29;37870;-80
2022/09/19 01:50:17;;;;;;;9.45;1.95;;;11.90;99.90;;;;;;4905278;29;39396;-79
2022/09/19 01:53:00;;;;;;;17.60;1.92;;;11.80;99.90;;;;;;4904034;29;48643;-80
2022/09/19 01:55:35;;;;;;;11.07;1.45;;;11.80;99.90;;;;;;4904099;29;36336;-80
2022/09/19 01:58:20;;;;;;;15.05;2.15;;;11.80;99.90;;;;;;4887045;29;37857;-80
2022/09/19 02:01:06;;;;;;;12.75;2.55;;;11.90;99.90;;;;;;4902143;29;46954;-79
2022/09/19 02:03:52;;;;;;;13.07;2.10;;;11.90;99.90;;;;;;4896794;29;48188;-79
2022/09/19 02:06:38;;;;;;;11.55;1.60;;;12.00;99.90;;;;;;4904089;29;37141;-78
2022/09/19 02:09:28;;;;;;;14.63;2.30;;;12.00;99.90;;;;;;4904965;29;37917;-78
2022/09/19 02:11:58;;;;;;;15.68;2.55;;;12.00;99.90;;;;;;4897294;29;38984;-79
2022/09/19 02:14:28;;;;;;;12.15;1.88;;;12.10;99.90;;;;;;4902278;29;38983;-79
2022/09/19 02:17:07;;;;;;;15.82;1.92;;;12.10;99.90;;;;;;4900921;29;37262;-79
2022/09/19 02:19:41;;;;;;;14.60;2.40;;;12.10;99.90;;;;;;4904609;29;50244;-79
2022/09/19 02:22:14;;;;;;;6.15;1.50;;;12.10;99.90;;;;;;4901391;29;40385;-80
2022/09/19 02:24:45;;;;;;;12.30;2.70;;;12.10;99.90;;;;;;4899406;29;39155;-78
2022/09/19 02:27:20;;;;;;;7.82;1.63;;;12.00;99.90;;;;;;4888676;29;35940;-79
2022/09/19 02:29:57;;;;;;;13.85;2.10;;;12.00;99.90;;;;;;4879230;29;37952;-81
2022/09/19 02:32:24;;;;;;;10.40;1.85;;;11.90;99.90;;;;;;4879680;29;39926;-79
2022/09/19 02:34:53;;;;;;;12.25;2.00;;;11.90;99.90;;;;;;4884806;29;39352;-78
2022/09/19 02:37:33;;;;;;;8.90;1.83;;;11.80;99.90;;;;;;4879803;29;39030;-78
2022/09/19 02:40:24;;;;;;;10.18;2.00;;;11.70;99.90;;;;;;4906474;29;37366;-78
2022/09/19 02:42:57;;;;;;;15.73;2.55;;;11.60;99.90;;;;;;4889739;29;48115;-78
2022/09/19 02:45:32;;;;;;;12.67;3.10;;;11.60;99.90;;;;;;4900501;29;37022;-79
2022/09/19 02:48:05;;;;;;;15.67;2.50;;;11.50;99.90;;;;;;4899872;29;37045;-79
2022/09/19 02:50:36;;;;;;;;;;;11.50;99.90;;;;;;4887311;29;46900;-79
2022/09/19 02:53:09;;;;;;;10.90;1.70;;;11.40;99.90;;;;;;4899615;29;39463;-78
2022/09/19 02:55:41;;;;;;;;;;;11.40;99.90;;;;;;4898802;29;39144;-79
2022/09/19 02:58:10;;;;;;;7.88;1.70;;;11.40;99.90;;;;;;4883582;29;39027;-79
2022/09/19 03:00:38;;;;;;;11.93;1.50;;;11.50;99.90;;;;;;4892444;29;37464;-79
2022/09/19 03:06:02;;;;;;;9.13;1.45;;;11.60;99.90;;;;;;4897481;29;39845;-78
2022/09/19 03:08:36;;;;;;;14.73;1.80;;;11.60;99.90;;;;;;4902046;29;36687;-78
2022/09/19 03:11:12;;;;;;;12.57;1.77;;;11.60;99.90;;;;;;4903504;29;39532;-79
2022/09/19 03:13:40;;;;;;;17.17;3.00;;;11.70;99.90;;;;;;4897979;29;48903;-79
2022/09/19 03:16:17;;;;;;;15.47;1.90;;;11.70;99.90;;;;;;4894207;29;38799;-79
2022/09/19 03:18:46;;;;;;;15.40;2.10;;;11.70;99.90;;;;;;4897868;29;37233;-77
2022/09/19 03:21:21;;;;;;;8.13;2.00;;;11.80;99.90;;;;;;4876843;29;39648;-77
2022/09/19 03:23:50;;;;;;;15.57;2.55;;;11.80;99.90;;;;;;4897846;29;38798;-79
2022/09/19 03:26:25;;;;;;;10.75;1.85;;;11.90;99.90;;;;;;4894828;29;38628;-78
2022/09/19 03:28:54;;;;;;;18.23;3.25;;;12.10;99.90;;;;;;4901713;29;37894;-78
2022/09/19 03:31:22;;;;;;;15.18;1.90;;;12.30;99.90;;;;;;4883675;29;37340;-77
2022/09/19 03:33:49;;;;;;;13.10;1.85;;;12.40;99.90;;;;;;4882492;29;37837;-78
2022/09/19 03:36:15;;;;;;;14.50;1.90;;;12.60;99.90;;;;;;4879937;29;38093;-77
2022/09/19 03:38:44;;;;;;;9.32;1.95;;;12.70;99.90;;;;;;4899554;29;37401;-78
2022/09/19 03:41:22;;;;;;;7.47;1.50;;;12.70;99.90;;;;;;4881246;29;37482;-77
2022/09/19 03:43:49;;;;;;;11.82;1.90;;;12.80;99.90;;;;;;4900323;29;40186;-77
2022/09/19 03:46:19;;;;;;;7.90;1.60;;;12.80;99.90;;;;;;4891477;29;38059;-77
2022/09/19 03:48:46;;;;;;;12.85;1.85;;;13.00;99.90;;;;;;4894335;29;37137;-77
2022/09/19 03:51:14;;;;;;;10.00;2.38;;;13.00;99.90;;;;;;4901931;29;38769;-78
2022/09/19 03:53:42;;;;;;;7.35;1.27;;;13.00;99.90;;;;;;4883065;29;39275;-78
2022/09/19 03:56:11;;;;;;;15.60;1.60;;;12.90;99.90;;;;;;4890893;29;39588;-78
2022/09/19 03:58:38;;;;;;;5.15;1.10;;;12.80;99.90;;;;;;4895193;29;37222;-78
2022/09/19 04:01:06;;;;;;;8.00;1.30;;;12.80;99.90;;;;;;4879108;29;39461;-78
2022/09/19 04:03:37;;;;;;;6.90;1.58;;;12.70;99.90;;;;;;4895578;29;39502;-78
2022/09/19 04:06:04;;;;;;;11.00;1.70;;;12.70;99.90;;;;;;4891935;29;40328;-78
2022/09/19 04:08:30;;;;;;;10.23;1.70;;;12.60;99.90;;;;;;4903589;29;36888;-78
2022/09/19 04:10:57;;;;;;;12.50;2.00;;;12.50;99.90;;;;;;4902031;29;39645;-78
2022/09/19 04:13:23;;;;;;;6.20;1.13;;;12.50;99.90;;;;;;4874555;29;39372;-77
2022/09/19 04:15:50;;;;;;;11.95;1.50;;;12.50;99.90;;;;;;4891203;29;37345;-77
2022/09/19 04:18:18;;;;;;;14.35;1.60;;;12.40;99.90;;;;;;4902406;29;37028;-77
2022/09/19 04:20:46;;;;;;;9.15;1.40;;;12.40;99.90;;;;;;4882297;29;37958;-78
2022/09/19 04:23:13;;;;;;;10.85;1.50;;;12.40;99.90;;;;;;4904722;29;39843;-77
2022/09/19 04:25:39;;;;;;;10.00;1.40;;;12.40;99.90;;;;;;4879126;29;37719;-77
2022/09/19 04:28:11;;;;;;;10.07;1.80;;;12.30;99.90;;;;;;4896215;29;37187;-78
2022/09/19 04:30:40;;;;;;;12.20;1.45;;;12.40;99.90;;;;;;4891952;29;39052;-77
2022/09/19 04:33:10;;;;;;;8.52;1.50;;;12.30;99.90;;;;;;4888069;29;39022;-77
2022/09/19 04:35:37;;;;;;;6.70;1.75;;;12.40;99.90;;;;;;4895300;29;37433;-77
2022/09/19 04:38:04;;;;;;;11.05;1.85;;;12.30;99.90;;;;;;4889609;29;37335;-78
2022/09/19 04:40:30;;;;;;;10.10;1.52;;;12.30;99.90;;;;;;4877480;29;38910;-76
2022/09/19 04:42:57;;;;;;;6.72;1.83;;;12.20;99.90;;;;;;4896037;29;39405;-77
2022/09/19 04:45:23;;;;;;;5.78;1.45;;;12.20;99.90;;;;;;4868189;29;37900;-77
2022/09/19 04:47:50;;;;;;;8.85;1.50;;;12.20;99.90;;;;;;4892889;29;37409;-77
2022/09/19 04:50:17;;;;;;;6.57;1.02;;;12.20;99.90;;;;;;4889525;29;37938;-77
2022/09/19 04:52:43;;;;;;;7.57;1.13;;;12.20;99.90;;;;;;4872764;29;37736;-77
2022/09/19 04:55:09;;;;;;;7.85;1.40;;;12.20;99.90;;;;;;4870550;29;37414;-77
2022/09/19 04:57:36;;;;;;;9.85;1.48;;;12.20;99.90;;;;;;4870572;29;37994;-77
2022/09/19 05:00:04;;;;;;;14.50;1.63;;;12.10;99.90;;;;;;4868933;29;39472;-77
2022/09/19 05:02:31;;;;;;;13.73;1.67;;;12.10;99.90;;;;;;4883898;29;39366;-78
2022/09/19 05:04:59;;;;;;;11.52;1.58;;;12.10;99.90;;;;;;4880408;29;37082;-78
2022/09/19 05:07:33;;;;;;;7.88;1.10;;;12.10;99.90;;;;;;4882625;29;37164;-77
2022/09/19 05:10:02;;;;;;;6.93;1.23;;;12.10;99.90;;;;;;4873779;29;39365;-77
2022/09/19 05:12:28;;;;;;;10.15;1.40;;;12.00;99.90;;;;;;4878721;29;37841;-77
2022/09/19 05:14:55;;;;;;;10.05;1.27;;;12.00;99.90;;;;;;4870964;29;39169;-78
2022/09/19 05:17:23;;;;;;;8.77;1.35;;;12.00;99.90;;;;;;4875515;29;38248;-77
2022/09/19 05:19:49;;;;;;;11.95;1.30;;;12.10;99.90;;;;;;4866822;29;39072;-78
2022/09/19 05:22:15;;;;;;;7.63;1.38;;;12.20;99.90;;;;;;4877647;29;40685;-78
2022/09/19 05:24:41;;;;;;;13.25;1.55;;;12.40;99.90;;;;;;4893713;29;38086;-78
2022/09/19 05:27:07;;;;;;;5.78;1.25;;;12.40;99.90;;;;;;4891228;29;38169;-79
2022/09/19 05:29:39;;;;;;;8.30;2.13;;;12.30;99.90;;;;;;4869841;29;39207;-77
2022/09/19 05:32:05;;;;;;;9.45;1.70;;;12.40;99.90;;;;;;4870824;29;40476;-78
2022/09/19 05:34:31;;;;;;;10.85;1.55;;;12.50;99.90;;;;;;4867895;29;39080;-78
2022/09/19 05:36:58;;;;;;;4.55;0.95;;;12.50;99.90;;;;;;4867669;29;38821;-78
2022/09/19 05:39:27;;;;;;;9.50;1.45;;;12.50;99.90;;;;;;4873837;29;39431;-79
2022/09/19 05:41:53;;;;;;;10.70;1.80;;;12.40;99.90;;;;;;4884708;29;40121;-77
2022/09/19 05:44:21;;;;;;;11.88;1.92;;;12.40;99.90;;;;;;4872100;29;39927;-77
2022/09/19 05:46:47;;;;;;;13.05;3.00;;;12.50;99.90;;;;;;4882607;29;36996;-77
2022/09/19 05:49:13;;;;;;;8.68;2.00;;;12.40;99.90;;;;;;4885970;29;38185;-77
2022/09/19 05:51:39;;;;;;;11.57;1.75;;;12.40;99.90;;;;;;4889718;29;39774;-77
2022/09/19 05:54:05;;;;;;;5.90;1.10;;;12.40;99.90;;;;;;4875065;29;39986;-79
2022/09/19 05:56:32;;;;;;;9.23;1.40;;;12.30;99.90;;;;;;4907814;29;37424;-78
2022/09/19 05:58:58;;;;;;;4.63;1.10;;;12.30;99.90;;;;;;4882230;29;38962;-77
2022/09/19 06:01:25;;;;;;;8.45;1.23;;;12.20;99.90;;;;;;4880099;29;38990;-78
2022/09/19 06:03:52;;;;;;;11.07;1.95;;;12.20;99.90;;;;;;4895949;29;38465;-79
2022/09/19 06:06:19;;;;;;;10.73;2.00;;;12.20;99.90;;;;;;4891018;29;39042;-78
2022/09/19 06:08:55;;;;;;;8.82;1.75;;;12.10;99.90;;;;;;4893102;29;39778;-78
2022/09/19 06:11:22;;;;;;;4.57;1.50;;;12.30;99.90;;;;;;4873260;29;39178;-78
2022/09/19 06:16:32;;;;;;;14.20;1.90;;;12.40;99.90;;;;;;4889567;29;47743;-78
2022/09/19 06:18:59;;;;;;;8.15;1.63;;;12.50;99.90;;;;;;4887949;29;42252;-78
2022/09/19 06:21:25;;;;;;;4.50;1.55;;;12.50;99.90;;;;;;4875282;29;37669;-78
2022/09/19 06:23:54;;;;;;;7.63;1.58;;;12.60;99.90;;;;;;4877321;29;38761;-78
2022/09/19 06:26:21;;;;;;;7.97;1.38;;;12.60;99.90;;;;;;4879111;29;37899;-78
2022/09/19 06:28:47;;;;;;;8.98;1.40;;;12.60;99.90;;;;;;4877390;29;39673;-78
2022/09/19 06:31:13;;;;;;;11.55;1.55;;;12.60;99.90;;;;;;4875581;29;39014;-78
2022/09/19 06:33:42;;;;;;;13.35;2.13;;;12.70;99.90;;;;;;4888823;29;39192;-78
2022/09/19 06:36:09;;;;;;;6.28;1.70;;;12.80;99.90;;;;;;4878503;29;34388;-78
2022/09/19 06:38:35;;;;;;;11.25;1.60;;;12.80;99.90;;;;;;4886414;29;38221;-78
2022/09/19 06:41:08;;;;;;;11.07;2.03;;;12.90;99.90;;;;;;4898080;29;40184;-77
2022/09/19 06:43:35;;;;;;;12.07;2.67;;;12.90;99.90;;;;;;4875106;29;47198;-78
2022/09/19 06:46:02;;;;;;;10.15;2.55;;;13.00;99.90;;;;;;4882974;29;37268;-78
2022/09/19 06:48:28;;;;;;;8.38;2.10;;;13.00;99.90;;;;;;4876641;29;39676;-77
2022/09/19 06:50:54;;;;;;;10.10;1.90;;;12.90;99.90;;;;;;4873296;29;39069;-78
2022/09/19 06:53:20;;;;;;;8.77;2.17;;;13.00;99.90;;;;;;4893904;29;39073;-78
2022/09/19 06:55:47;;;;;;;7.72;1.88;;;12.90;99.90;;;;;;4866808;29;36379;-78
2022/09/19 06:58:15;;;;;;;11.00;1.90;;;12.90;99.90;;;;;;4895578;29;39136;-77
2022/09/19 07:00:43;;;;;;;12.65;1.42;;;12.90;99.90;;;;;;4883252;29;37749;-78
2022/09/19 07:03:12;;;;;;;8.80;1.30;;;12.90;99.90;;;;;;4876837;29;39487;-78
2022/09/19 07:05:42;;;;;;;5.25;1.25;;;13.00;99.90;;;;;;4894310;29;37575;-79
2022/09/19 07:08:10;;;;;;;7.80;1.10;;;13.00;99.90;;;;;;4883106;29;38753;-79
2022/09/19 07:10:36;;;;;;;7.72;1.67;;;13.10;99.90;;;;;;4876857;29;38043;-79
2022/09/19 07:13:04;;;;;;;6.50;1.20;;;13.20;99.90;;;;;;4877573;29;37745;-79
2022/09/19 07:15:32;;;;;;;4.40;1.00;;;13.10;99.90;;;;;;4885410;29;47169;-80
2022/09/19 07:17:59;;;;;;;12.35;1.50;;;13.30;99.90;;;;;;4892496;29;37611;-80
2022/09/19 07:20:27;;;;;;;10.48;1.83;;;13.40;99.90;;;;;;4886898;29;38557;-79
2022/09/19 07:23:02;;;;;;;3.25;1.10;;;13.50;99.90;;;;;;4890894;29;39522;-79
2022/09/19 07:25:29;;;;;;;6.90;1.50;;;13.60;99.90;;;;;;4911782;29;47816;-80
2022/09/19 07:28:00;;;;;;;10.02;1.45;;;13.60;99.90;;;;;;4888790;29;38909;-80
2022/09/19 07:30:28;;;;;;;9.60;2.30;;;13.70;99.90;;;;;;4887547;29;39142;-80
2022/09/19 07:32:59;;;;;;;5.18;1.00;;;13.90;99.90;;;;;;4908162;29;40029;-80
2022/09/19 07:35:29;;;;;;;6.18;1.05;;;14.00;99.90;;;;;;4891219;29;36036;-80
2022/09/19 07:37:56;;;;;;;7.90;1.23;;;14.00;99.90;;;;;;4906867;29;40211;-82
2022/09/19 07:40:23;;;;;;;6.70;1.40;;;14.00;99.90;;;;;;4901964;29;40191;-80
2022/09/19 07:42:51;;;;;;;5.75;1.00;;;14.10;99.90;;;;;;4874647;29;39142;-82
2022/09/19 07:45:18;;;;;;;6.50;0.82;;;14.20;99.90;;;;;;4876093;29;35934;-81
2022/09/19 07:47:45;;;;;;;4.47;1.00;;;14.20;99.90;;;;;;4881089;29;39356;-81
2022/09/19 07:50:16;;;;;;;6.95;1.02;;;14.20;99.90;;;;;;4878256;29;38937;-84
2022/09/19 07:52:47;;;;;;;6.40;1.00;;;14.30;99.90;;;;;;4896114;29;38748;-81
2022/09/19 07:55:14;;;;;;;4.20;1.00;;;14.40;99.90;;;;;;4870975;29;37291;-81
2022/09/19 07:57:52;;;;;;;6.43;1.20;;;14.50;99.90;;;;;;4887479;29;38762;-81
2022/09/19 08:00:18;;;;;;;8.10;1.30;;;14.60;99.90;;;;;;4892143;29;38128;-83
2022/09/19 08:02:53;;;;;;;7.80;1.35;;;14.70;99.90;;;;;;4893728;29;37249;-83
2022/09/19 08:05:19;;;;;;;10.82;1.58;;;14.80;99.90;;;;;;4882986;29;37899;-81
2022/09/19 08:07:46;;;;;;;4.93;1.10;;;14.90;99.90;;;;;;4898725;29;40342;-82
2022/09/19 08:10:15;;;;;;;5.57;1.40;;;15.00;99.90;;;;;;4868206;29;40467;-82
2022/09/19 08:12:44;;;;;;;6.90;1.13;;;15.00;99.90;;;;;;4865286;29;39517;-80
2022/09/19 08:15:10;;;;;;;13.38;1.58;;;15.10;99.90;;;;;;4866973;29;38661;-83
2022/09/19 08:17:36;;;;;;;9.75;1.17;;;15.30;99.90;;;;;;4867373;29;38904;-83
2022/09/19 08:20:03;;;;;;;9.60;1.40;;;15.40;99.90;;;;;;4867431;29;39293;-84
2022/09/19 08:22:31;;;;;;;14.32;1.52;;;15.60;99.90;;;;;;4889511;29;39735;-84
2022/09/19 08:24:57;;;;;;;7.45;1.60;;;15.80;99.90;;;;;;4892101;29;37431;-86
2022/09/19 08:27:24;;;;;;;8.35;1.23;;;16.10;99.90;;;;;;4878518;29;39545;-85
2022/09/19 08:29:50;;;;;;;5.43;1.25;;;16.40;99.90;;;;;;4869364;29;39162;-84
2022/09/19 08:32:16;;;;;;;5.80;1.33;;;16.60;99.90;;;;;;4870741;29;38968;-83
2022/09/19 08:34:42;;;;;;;10.80;1.17;;;16.60;99.90;;;;;;4869146;29;38580;-80
2022/09/19 08:37:08;;;;;;;10.25;1.10;;;16.30;99.90;;;;;;4884339;29;38528;-83
2022/09/19 08:39:34;;;;;;;9.05;1.52;;;16.10;99.90;;;;;;4859542;29;40425;-81
2022/09/19 08:42:18;;;;;;;9.95;1.00;;;15.90;99.90;;;;;;4871230;29;37546;-85
2022/09/19 08:44:44;;;;;;;8.27;1.30;;;15.80;99.90;;;;;;4885339;29;49933;-85
2022/09/19 08:47:13;;;;;;;13.90;1.35;;;15.80;99.90;;;;;;4885477;29;39442;-83
2022/09/19 08:49:56;;;;;;;7.50;1.13;;;15.80;99.90;;;;;;4870778;29;35908;-81
2022/09/19 08:53:08;;;;;;;7.72;1.63;;;15.90;99.90;;;;;;4882763;29;39247;-84
2022/09/19 08:55:35;;;;;;;10.13;1.13;;;16.10;99.90;;;;;;4864509;29;47098;-81
2022/09/19 08:58:19;;;;;;;4.55;0.70;;;16.30;99.90;;;;;;4889209;29;38847;-82
2022/09/19 09:00:46;;;;;;;9.95;1.33;;;16.50;99.90;;;;;;4865259;29;47238;-81
2022/09/19 09:03:16;;;;;;;10.35;1.50;;;16.60;99.90;;;;;;4885374;29;38533;-82
2022/09/19 09:05:56;;;;;;;9.95;1.35;;;16.80;99.90;;;;;;4871418;29;37724;-84
2022/09/19 09:08:59;;;;;;;8.85;1.02;;;16.90;99.90;;;;;;4866888;29;40370;-83
2022/09/19 09:11:51;;;;;;;7.78;1.25;;;16.80;99.90;;;;;;4880540;29;40595;-79
2022/09/19 09:14:29;;;;;;;7.82;1.00;;;16.70;99.90;;;;;;4886750;29;40822;-82
2022/09/19 09:17:22;;;;;;;7.03;1.23;;;16.90;99.90;;;;;;4889255;29;38444;-81
2022/09/19 09:20:10;;;;;;;9.05;1.65;;;17.20;99.90;;;;;;4889966;29;47969;-83
2022/09/19 09:22:48;;;;;;;5.75;1.33;;;17.10;99.90;;;;;;4881170;29;47589;-81
2022/09/19 09:25:20;;;;;;;8.10;1.10;;;16.80;99.90;;;;;;4890855;29;38500;-84
2022/09/19 09:27:55;;;;;;;5.30;0.77;;;16.60;99.90;;;;;;4867719;29;38129;-84
2022/09/19 09:30:21;;;;;;;4.55;0.77;;;16.50;99.90;;;;;;4890830;29;39340;-83
2022/09/19 09:32:54;;;;;;;4.55;1.38;;;16.40;99.90;;;;;;4871437;29;39835;-84
2022/09/19 09:35:47;;;;;;;8.02;1.15;;;16.50;99.90;;;;;;4888413;29;38310;-84
2022/09/19 09:38:32;;;;;;;9.30;1.23;;;16.70;99.90;;;;;;4870978;29;39277;-84
2022/09/19 09:43:56;;;;;;;8.85;1.17;;;17.00;99.90;;;;;;4890263;29;49099;-85
2022/09/19 09:46:32;;;;;;;6.97;1.08;;;16.80;99.90;;;;;;4865990;29;37372;-81
2022/09/19 09:48:58;;;;;;;6.45;1.20;;;16.80;99.90;;;;;;4890865;29;38391;-82
2022/09/19 09:51:45;;;;;;;3.13;0.93;;;16.80;99.90;;;;;;4882123;29;37934;-84
2022/09/19 09:57:47;;;;;;;6.38;1.00;;;17.20;99.90;;;;;;4886580;29;38726;-83
2022/09/19 10:03:34;;;;;;;4.30;1.33;;;17.70;99.90;;;;;;4893027;29;40099;-83
2022/09/19 10:06:13;;;;;;;7.40;1.40;;;17.80;99.90;;;;;;4887784;29;46921;-84
2022/09/19 10:09:02;;;;;;;8.20;1.17;;;17.60;99.90;;;;;;4861069;29;45820;-84
2022/09/19 10:11:39;;;;;;;6.47;1.20;;;17.60;99.90;;;;;;4887891;29;36729;-83
2022/09/19 10:14:14;;;;;;;6.15;1.33;;;17.50;99.90;;;;;;4889453;29;38863;-84
2022/09/19 10:16:46;;;;;;;6.60;1.75;;;17.30;99.90;;;;;;4887259;29;38819;-84
2022/09/19 10:19:31;;;;;;;5.88;1.15;;;17.20;99.90;;;;;;4876067;29;37746;-84
2022/09/19 10:21:57;;;;;;;9.82;1.83;;;17.10;99.90;;;;;;4891296;29;37437;-85
2022/09/19 10:24:43;;;;;;;9.68;1.33;;;17.10;99.90;;;;;;4878457;29;38938;-85
2022/09/19 10:27:26;;;;;;;9.35;1.10;;;17.00;99.90;;;;;;4889579;29;38282;-85
2022/09/19 10:30:20;;;;;;;6.22;1.08;;;17.30;99.90;;;;;;4892415;29;39044;-84
2022/09/19 10:32:47;;;;;;;8.15;1.20;;;17.80;99.90;;;;;;4865914;29;47532;-84
2022/09/19 10:35:36;;;;;;;6.38;1.30;;;17.70;99.90;;;;;;4882625;29;39047;-86
2022/09/19 10:38:13;;;;;;;4.55;1.15;;;17.50;99.90;;;;;;4868195;29;40334;-85
2022/09/19 10:40:56;;;;;;;6.28;1.10;;;17.30;99.90;;;;;;4873314;29;47612;-85
2022/09/19 10:43:46;;;;;;;10.95;1.23;;;17.40;99.90;;;;;;4886462;29;38195;-83
2022/09/19 10:46:36;;;;;;;4.25;0.80;;;17.60;99.90;;;;;;4874487;29;39411;-83
2022/09/19 10:49:19;;;;;;;11.52;1.58;;;17.90;99.90;;;;;;4886243;29;39260;-84
2022/09/19 10:51:47;;;;;;;11.90;1.23;;;18.40;99.90;;;;;;4862905;29;39209;-85
2022/09/19 10:54:37;;;;;;;6.38;0.93;;;18.50;99.90;;;;;;4887136;29;38076;-82
2022/09/19 10:57:05;;;;;;;8.18;1.10;;;18.10;99.90;;;;;;4884308;29;40310;-83
2022/09/19 10:59:37;;;;;;;6.35;0.93;;;17.70;99.90;;;;;;4873248;29;38077;-83
2022/09/19 11:02:09;;;;;;;5.68;1.35;;;17.60;99.90;;;;;;4872684;29;39699;-85
2022/09/19 11:04:36;;;;;;;4.88;1.08;;;17.80;99.90;;;;;;4887797;29;35889;-84
2022/09/19 11:07:16;;;;;;;7.55;1.20;;;17.70;99.90;;;;;;4862535;29;39595;-83
2022/09/19 11:09:44;;;;;;;5.80;0.98;;;17.60;99.90;;;;;;4862978;29;47459;-84
2022/09/19 11:12:16;;;;;;;3.88;0.98;;;17.40;99.90;;;;;;4887829;29;39125;-83
2022/09/19 11:14:48;;;;;;;5.50;1.02;;;17.20;99.90;;;;;;4887775;29;36976;-78
2022/09/19 11:17:42;;;;;;;8.07;1.40;;;17.20;99.90;;;;;;4868774;29;39452;-84
2022/09/19 11:20:27;;;;;;;7.30;0.90;;;17.00;99.90;;;;;;4892316;29;39499;-85
2022/09/19 11:23:15;;;;;;;5.57;0.88;;;17.30;99.90;;;;;;4895725;29;39021;-85
2022/09/19 11:25:58;;;;;;;6.55;1.25;;;17.60;99.90;;;;;;4861154;29;47026;-84
2022/09/19 11:28:43;;;;;;;8.15;1.27;;;17.80;99.90;;;;;;4888644;29;40058;-85
2022/09/19 11:31:49;;;;;;;8.25;1.05;;;18.00;99.90;;;;;;4877057;29;39346;-84
2022/09/19 11:34:21;;;;;;;8.90;1.08;;;18.20;99.90;;;;;;4868137;29;39147;-84
2022/09/19 11:37:09;;;;;;;6.22;1.00;;;18.50;99.90;;;;;;4867180;29;38942;-83
2022/09/19 11:40:06;;;;;;;3.42;0.85;;;18.70;99.90;;;;;;4883258;29;47758;-81
2022/09/19 11:42:32;;;;;;;5.10;0.95;;;18.70;99.90;;;;;;4889394;29;48693;-82
2022/09/19 11:45:11;;;;;;;5.65;1.00;;;18.50;99.90;;;;;;4885718;29;38916;-83
2022/09/19 11:48:01;;;;;;;7.18;1.10;;;18.30;99.90;;;;;;4871466;29;48138;-83
2022/09/19 11:50:46;;;;;;;7.97;1.05;;;18.40;99.90;;;;;;4871668;29;40429;-82
2022/09/19 11:53:37;;;;;;;3.03;0.93;;;18.60;99.90;;;;;;4889982;29;39904;-82
2022/09/19 11:56:44;;;;;;;5.32;0.70;;;18.70;99.90;;;;;;4877583;29;40323;-84
2022/09/19 11:59:18;;;;;;;5.32;0.88;;;18.70;99.90;;;;;;4870022;29;47350;-83
2022/09/19 12:02:18;;;;;;;7.80;0.85;;;18.90;99.90;;;;;;4880190;29;39362;-80
2022/09/19 12:05:03;;;;;;;5.25;1.20;;;19.00;99.90;;;;;;4892691;29;47216;-82
2022/09/19 12:08:05;;;;;;;5.72;1.00;;;19.40;99.90;;;;;;4870232;29;47154;-80
2022/09/19 12:10:43;;;;;;;6.93;1.10;;;19.60;99.90;;;;;;4875292;29;47874;-82
2022/09/19 12:13:16;;;;;;;9.65;1.17;;;19.40;99.90;;;;;;4871114;29;40304;-81
2022/09/19 12:15:48;;;;;;;8.70;1.30;;;19.50;99.90;;;;;;4871844;29;39984;-83
2022/09/19 12:18:22;;;;;;;6.47;1.00;;;19.10;99.90;;;;;;4887260;29;41074;-84
2022/09/19 12:20:53;;;;;;;9.23;1.52;;;18.60;99.90;;;;;;4868093;29;38166;-82
2022/09/19 12:26:32;;;;;;;11.50;1.40;;;17.40;99.90;;;;;;4885546;29;39898;-85
2022/09/19 12:29:24;;;;;;;9.63;1.30;;;17.10;99.90;;;;;;4888018;29;38355;-85
2022/09/19 12:31:58;;;;;;;8.93;1.25;;;17.30;99.90;;;;;;4865150;29;47300;-88
2022/09/19 12:34:29;;;;;;;8.00;1.25;;;17.80;99.90;;;;;;4883958;29;38036;-84
2022/09/19 12:37:04;;;;;;;10.63;1.70;;;18.00;99.90;;;;;;4885431;29;37889;-87
2022/09/19 12:39:55;;;;;;;7.72;1.02;;;18.00;99.90;;;;;;4867639;29;47488;-86
2022/09/19 12:42:47;;;;;;;4.63;0.80;;;18.20;99.90;;;;;;4885568;29;37091;-84
2022/09/19 12:45:55;;;;;;;8.25;1.10;;;18.40;99.90;;;;;;4879583;29;39361;-83
2022/09/19 12:48:31;;;;;;;4.53;0.85;;;18.60;99.90;;;;;;4864388;29;39470;-84
2022/09/19 12:50:58;;;;;;;8.30;1.00;;;18.80;99.90;;;;;;4867414;29;38793;-84
2022/09/19 12:53:40;;;;;;;8.38;1.45;;;19.00;99.90;;;;;;4867951;29;36952;-82
2022/09/19 12:56:29;;;;;;;6.97;1.63;;;19.10;99.90;;;;;;4866668;29;39387;-85
2022/09/19 12:59:12;;;;;;;8.02;1.40;;;18.70;99.90;;;;;;4871966;29;40189;-85
2022/09/19 13:01:47;;;;;;;9.43;2.17;;;18.10;99.90;;;;;;4881783;29;47170;-85
2022/09/19 13:04:25;;;;;;;7.93;1.33;;;17.90;99.90;;;;;;4885718;29;36193;-86
2022/09/19 13:06:55;;;;;;;11.35;1.92;;;17.80;99.90;;;;;;4882020;29;38303;-85
2022/09/19 13:09:32;;;;;;;9.40;1.40;;;18.20;99.90;;;;;;4868776;29;39444;-85
2022/09/19 13:12:12;;;;;;;7.25;1.10;;;18.60;99.90;;;;;;4886004;29;39466;-81
2022/09/19 13:14:48;;;;;;;5.78;1.50;;;18.60;99.90;;;;;;4878400;29;48510;-80
2022/09/19 13:25:39;;;;;;;6.10;1.23;;;17.30;99.90;;;;;;4879578;29;48591;-87
2022/09/19 13:28:21;;;;;;;5.07;1.23;;;17.10;99.90;;;;;;4890459;29;39388;-86
2022/09/19 13:31:12;;;;;;;9.50;1.17;;;16.90;99.90;;;;;;4911950;29;37553;-85
2022/09/19 13:33:48;;;;;;;4.75;0.90;;;16.80;99.90;;;;;;4900496;29;51680;-88
2022/09/19 13:36:37;;;;;;;5.18;0.80;;;16.70;99.90;;;;;;4876399;29;38204;-89
2022/09/19 13:39:24;;;;;;;7.57;1.00;;;16.70;99.90;;;;;;4882289;29;40487;-83
2022/09/19 13:41:55;;;;;;;6.78;0.75;;;16.50;99.90;;;;;;4885806;29;39190;-86
2022/09/19 13:44:29;;;;;;;5.22;0.90;;;16.30;99.90;;;;;;4869605;29;38681;-88
2022/09/19 13:47:25;;;;;;;5.20;1.10;;;16.40;99.90;;;;;;4886054;29;37142;-88
2022/09/19 13:50:15;;;;;;;6.78;0.80;;;16.90;99.90;;;;;;4873432;29;47549;-88
2022/09/19 13:52:47;;;;;;;4.82;0.93;;;17.20;99.90;;;;;;4860670;29;47026;-88